CPA873 ZSPD-VHHH
Flight info
| Callsign | CPA873 |
|---|---|
| Flight time | 1h 53m |
| Altitude | 35100 |
| Route | HSN81D HSN W13 TOGUG/K0920S1040 W13 BEGMO M503 TOLAK/N0499F341 M503 LELIM/N0513F300 V591 ABBEY |
| Aircraft | B77W/H-SDE1E2E3FGHIJ2J3J4J5M1RWXY/LB1D1 |
Departure
| Time | 2026-05-07 01:04 |
|---|---|
| Airport | Shanghai Pudong International Airport (ZSPD) |
Arrival
| Time | 2026-05-07 02:58 |
|---|---|
| Airport | Hong Kong International Airport (VHHH) |
| Time | Latitude | Longitude | Altitude | Speed | Heading |
|---|---|---|---|---|---|
| 2026-05-07 00:46 | 31.14970 | 121.80888 | 28 ft | 0 kts | 252° |
| 2026-05-07 00:57 | 31.14974 | 121.80903 | 27 ft | 2 kts | 252° |
| 2026-05-07 00:57 | 31.14979 | 121.80919 | 27 ft | 2 kts | 252° |
| 2026-05-07 00:57 | 31.14984 | 121.80936 | 27 ft | 2 kts | 260° |
| 2026-05-07 00:58 | 31.14984 | 121.80953 | 27 ft | 2 kts | 281° |
| 2026-05-07 00:58 | 31.14979 | 121.80971 | 27 ft | 2 kts | 298° |
| 2026-05-07 00:58 | 31.14971 | 121.80985 | 27 ft | 2 kts | 315° |
| 2026-05-07 00:58 | 31.14959 | 121.80996 | 27 ft | 2 kts | 332° |
| 2026-05-07 00:59 | 31.14947 | 121.81001 | 27 ft | 0 kts | 342° |
| 2026-05-07 00:59 | 31.14948 | 121.81001 | 27 ft | 0 kts | 342° |
| 2026-05-07 01:01 | 31.14975 | 121.80991 | 27 ft | 13 kts | 341° |
| 2026-05-07 01:01 | 31.15107 | 121.80939 | 27 ft | 21 kts | 342° |
| 2026-05-07 01:01 | 31.15245 | 121.80887 | 27 ft | 19 kts | 342° |
| 2026-05-07 01:01 | 31.15344 | 121.80933 | 27 ft | 16 kts | 59° |
| 2026-05-07 01:02 | 31.15388 | 121.81072 | 27 ft | 19 kts | 71° |
| 2026-05-07 01:02 | 31.15495 | 121.81107 | 27 ft | 18 kts | 344° |
| 2026-05-07 01:02 | 31.15631 | 121.81057 | 27 ft | 21 kts | 342° |
| 2026-05-07 01:02 | 31.15765 | 121.81007 | 27 ft | 18 kts | 342° |
| 2026-05-07 01:03 | 31.15849 | 121.81072 | 27 ft | 15 kts | 71° |
| 2026-05-07 01:03 | 31.15871 | 121.81176 | 27 ft | 7 kts | 127° |
| 2026-05-07 01:03 | 31.15804 | 121.81212 | 27 ft | 18 kts | 162° |
| 2026-05-07 01:03 | 31.15467 | 121.81340 | 28 ft | 83 kts | 162° |
| 2026-05-07 01:04 | 31.14706 | 121.81627 | 28 ft | 142 kts | 161° |
| 2026-05-07 01:04 | 31.13606 | 121.82040 | 188 ft | 175 kts | 163° |
| 2026-05-07 01:04 | 31.12418 | 121.82492 | 734 ft | 184 kts | 162° |
| 2026-05-07 01:04 | 31.11180 | 121.82820 | 1343 ft | 187 kts | 165° |
| 2026-05-07 01:05 | 31.09951 | 121.83518 | 1591 ft | 204 kts | 147° |
| 2026-05-07 01:05 | 31.08747 | 121.84512 | 1904 ft | 219 kts | 145° |
| 2026-05-07 01:05 | 31.07463 | 121.85602 | 2209 ft | 237 kts | 145° |
| 2026-05-07 01:05 | 31.06056 | 121.86744 | 2649 ft | 249 kts | 146° |
| 2026-05-07 01:06 | 31.04582 | 121.87948 | 3017 ft | 266 kts | 146° |
| 2026-05-07 01:06 | 31.03022 | 121.89220 | 3626 ft | 272 kts | 146° |
| 2026-05-07 01:06 | 31.01475 | 121.90498 | 4314 ft | 274 kts | 142° |
| 2026-05-07 01:06 | 30.99995 | 121.91969 | 4828 ft | 281 kts | 138° |
| 2026-05-07 01:07 | 30.98554 | 121.93507 | 4916 ft | 280 kts | 138° |
| 2026-05-07 01:07 | 30.97086 | 121.95077 | 4957 ft | 288 kts | 138° |
| 2026-05-07 01:07 | 30.95486 | 121.96469 | 5675 ft | 285 kts | 156° |
| 2026-05-07 01:07 | 30.93642 | 121.97294 | 6397 ft | 284 kts | 162° |
| 2026-05-07 01:08 | 30.91741 | 121.98046 | 7052 ft | 287 kts | 163° |
| 2026-05-07 01:08 | 30.89847 | 121.98790 | 7708 ft | 288 kts | 163° |
| 2026-05-07 01:08 | 30.87908 | 121.99551 | 8342 ft | 290 kts | 163° |
| 2026-05-07 01:08 | 30.85994 | 122.00301 | 8989 ft | 291 kts | 163° |
| 2026-05-07 01:09 | 30.84047 | 122.01064 | 9601 ft | 293 kts | 163° |
| 2026-05-07 01:09 | 30.82099 | 122.01827 | 10167 ft | 297 kts | 164° |
| 2026-05-07 01:09 | 30.80067 | 122.02621 | 10460 ft | 312 kts | 164° |
| 2026-05-07 01:09 | 30.77948 | 122.03447 | 10725 ft | 328 kts | 164° |
| 2026-05-07 01:10 | 30.75697 | 122.04324 | 11009 ft | 344 kts | 164° |
| 2026-05-07 01:10 | 30.73374 | 122.05231 | 11327 ft | 359 kts | 164° |
| 2026-05-07 01:10 | 30.70953 | 122.06175 | 11669 ft | 373 kts | 164° |
| 2026-05-07 01:10 | 30.68409 | 122.07166 | 12020 ft | 387 kts | 164° |
| 2026-05-07 01:11 | 30.65790 | 122.08189 | 12513 ft | 396 kts | 164° |
| 2026-05-07 01:11 | 30.63172 | 122.09210 | 13185 ft | 401 kts | 164° |
| 2026-05-07 01:11 | 30.60487 | 122.10257 | 13936 ft | 404 kts | 165° |
| 2026-05-07 01:11 | 30.57813 | 122.11300 | 14667 ft | 408 kts | 165° |
| 2026-05-07 01:12 | 30.55072 | 122.12367 | 15405 ft | 413 kts | 165° |
| 2026-05-07 01:12 | 30.52335 | 122.13433 | 16150 ft | 417 kts | 165° |
| 2026-05-07 01:12 | 30.49528 | 122.14525 | 16852 ft | 423 kts | 165° |
| 2026-05-07 01:12 | 30.46727 | 122.15614 | 17593 ft | 426 kts | 165° |
| 2026-05-07 01:13 | 30.43865 | 122.16726 | 18295 ft | 431 kts | 165° |
| 2026-05-07 01:13 | 30.41007 | 122.17835 | 18923 ft | 436 kts | 165° |
| 2026-05-07 01:13 | 30.38068 | 122.18976 | 19557 ft | 442 kts | 166° |
| 2026-05-07 01:13 | 30.35114 | 122.20121 | 20175 ft | 447 kts | 166° |
| 2026-05-07 01:14 | 30.32137 | 122.21275 | 20789 ft | 453 kts | 166° |
| 2026-05-07 01:14 | 30.29131 | 122.22440 | 21414 ft | 457 kts | 166° |
| 2026-05-07 01:14 | 30.26051 | 122.23633 | 22011 ft | 462 kts | 166° |
| 2026-05-07 01:14 | 30.22973 | 122.24824 | 22605 ft | 467 kts | 166° |
| 2026-05-07 01:15 | 30.19834 | 122.26038 | 23182 ft | 472 kts | 166° |
| 2026-05-07 01:15 | 30.16704 | 122.27248 | 23736 ft | 476 kts | 166° |
| 2026-05-07 01:15 | 30.13516 | 122.28481 | 24355 ft | 479 kts | 166° |
| 2026-05-07 01:15 | 30.10343 | 122.29706 | 24919 ft | 484 kts | 166° |
| 2026-05-07 01:16 | 30.07080 | 122.30965 | 25433 ft | 490 kts | 166° |
| 2026-05-07 01:16 | 30.03830 | 122.32219 | 25968 ft | 495 kts | 166° |
| 2026-05-07 01:16 | 30.00501 | 122.33503 | 26511 ft | 499 kts | 166° |
| 2026-05-07 01:16 | 29.97199 | 122.34777 | 27105 ft | 502 kts | 166° |
| 2026-05-07 01:17 | 29.93820 | 122.36059 | 27677 ft | 503 kts | 168° |
| 2026-05-07 01:17 | 29.90412 | 122.36992 | 28162 ft | 504 kts | 173° |
| 2026-05-07 01:17 | 29.86932 | 122.37810 | 28612 ft | 509 kts | 173° |
| 2026-05-07 01:17 | 29.83394 | 122.38631 | 29153 ft | 513 kts | 173° |
| 2026-05-07 01:18 | 29.79893 | 122.39445 | 29795 ft | 514 kts | 174° |
| 2026-05-07 01:18 | 29.76350 | 122.40270 | 30609 ft | 511 kts | 174° |
| 2026-05-07 01:18 | 29.72847 | 122.41087 | 31509 ft | 506 kts | 174° |
| 2026-05-07 01:18 | 29.69401 | 122.41889 | 32320 ft | 502 kts | 174° |
| 2026-05-07 01:19 | 29.65982 | 122.42685 | 33016 ft | 499 kts | 174° |
| 2026-05-07 01:19 | 29.62580 | 122.43475 | 33617 ft | 498 kts | 174° |
| 2026-05-07 01:19 | 29.59128 | 122.44277 | 34165 ft | 498 kts | 174° |
| 2026-05-07 01:19 | 29.55722 | 122.45068 | 34695 ft | 498 kts | 174° |
| 2026-05-07 01:20 | 29.52307 | 122.45860 | 35051 ft | 501 kts | 174° |
| 2026-05-07 01:20 | 29.45403 | 122.47460 | 35058 ft | 500 kts | 174° |
| 2026-05-07 01:21 | 29.38537 | 122.49051 | 35057 ft | 499 kts | 174° |
| 2026-05-07 01:21 | 29.31657 | 122.50641 | 35061 ft | 502 kts | 174° |
| 2026-05-07 01:22 | 29.24740 | 122.51911 | 35062 ft | 492 kts | 184° |
| 2026-05-07 01:22 | 29.18013 | 122.51204 | 35065 ft | 478 kts | 200° |
| 2026-05-07 01:23 | 29.11827 | 122.48509 | 35069 ft | 466 kts | 213° |
| 2026-05-07 01:23 | 29.06064 | 122.45119 | 35080 ft | 464 kts | 213° |
| 2026-05-07 01:24 | 29.00285 | 122.41711 | 35072 ft | 465 kts | 213° |
| 2026-05-07 01:24 | 28.94477 | 122.38296 | 35078 ft | 465 kts | 213° |
| 2026-05-07 01:25 | 28.88705 | 122.34903 | 35077 ft | 466 kts | 213° |
| 2026-05-07 01:25 | 28.82889 | 122.31492 | 35075 ft | 465 kts | 213° |
| 2026-05-07 01:26 | 28.77096 | 122.28097 | 35073 ft | 465 kts | 213° |
| 2026-05-07 01:26 | 28.71306 | 122.24710 | 35075 ft | 466 kts | 213° |
| 2026-05-07 01:27 | 28.65519 | 122.21328 | 35077 ft | 467 kts | 213° |
| 2026-05-07 01:27 | 28.59664 | 122.17911 | 35076 ft | 468 kts | 213° |
| 2026-05-07 01:28 | 28.53845 | 122.14519 | 35072 ft | 468 kts | 213° |
| 2026-05-07 01:28 | 28.48041 | 122.11140 | 35074 ft | 468 kts | 213° |
| 2026-05-07 01:29 | 28.42179 | 122.07733 | 35072 ft | 467 kts | 213° |
| 2026-05-07 01:29 | 28.36378 | 122.04364 | 35069 ft | 467 kts | 213° |
| 2026-05-07 01:30 | 28.30516 | 122.00964 | 35068 ft | 470 kts | 213° |
| 2026-05-07 01:30 | 28.24664 | 121.97573 | 35069 ft | 471 kts | 213° |
| 2026-05-07 01:31 | 28.18810 | 121.94187 | 35062 ft | 470 kts | 213° |
| 2026-05-07 01:31 | 28.12921 | 121.90784 | 35068 ft | 471 kts | 213° |
| 2026-05-07 01:32 | 28.07017 | 121.87377 | 35069 ft | 471 kts | 213° |
| 2026-05-07 01:32 | 28.01129 | 121.83983 | 35067 ft | 473 kts | 213° |
| 2026-05-07 01:33 | 27.95326 | 121.80486 | 35070 ft | 471 kts | 215° |
| 2026-05-07 01:33 | 27.89544 | 121.76886 | 35068 ft | 471 kts | 215° |
| 2026-05-07 01:34 | 27.83743 | 121.73287 | 35058 ft | 472 kts | 215° |
| 2026-05-07 01:34 | 27.77936 | 121.69695 | 35059 ft | 473 kts | 215° |
| 2026-05-07 01:35 | 27.72125 | 121.66110 | 35056 ft | 472 kts | 214° |
| 2026-05-07 01:35 | 27.66323 | 121.62534 | 35053 ft | 473 kts | 215° |
| 2026-05-07 01:36 | 27.60526 | 121.58968 | 35056 ft | 474 kts | 214° |
| 2026-05-07 01:36 | 27.54700 | 121.55396 | 35054 ft | 474 kts | 214° |
| 2026-05-07 01:37 | 27.48843 | 121.51820 | 35054 ft | 475 kts | 214° |
| 2026-05-07 01:37 | 27.43000 | 121.48257 | 35050 ft | 474 kts | 214° |
| 2026-05-07 01:38 | 27.37171 | 121.44707 | 35048 ft | 474 kts | 214° |
| 2026-05-07 01:38 | 27.31328 | 121.41151 | 35045 ft | 475 kts | 214° |
| 2026-05-07 01:39 | 27.25475 | 121.37594 | 35042 ft | 475 kts | 214° |
| 2026-05-07 01:39 | 27.19615 | 121.34037 | 35052 ft | 475 kts | 214° |
| 2026-05-07 01:40 | 27.13716 | 121.30458 | 35056 ft | 475 kts | 214° |
| 2026-05-07 01:40 | 27.07856 | 121.26908 | 35059 ft | 478 kts | 214° |
| 2026-05-07 01:41 | 27.01954 | 121.23337 | 35068 ft | 478 kts | 214° |
| 2026-05-07 01:41 | 26.96073 | 121.19783 | 35069 ft | 477 kts | 214° |
| 2026-05-07 01:42 | 26.90179 | 121.16226 | 35069 ft | 478 kts | 213° |
| 2026-05-07 01:42 | 26.84275 | 121.12666 | 35066 ft | 479 kts | 214° |
| 2026-05-07 01:43 | 26.78485 | 121.09180 | 35066 ft | 479 kts | 214° |
| 2026-05-07 01:43 | 26.72584 | 121.05628 | 35069 ft | 480 kts | 214° |
| 2026-05-07 01:44 | 26.66624 | 121.02039 | 35066 ft | 479 kts | 214° |
| 2026-05-07 01:44 | 26.60713 | 120.98481 | 35063 ft | 481 kts | 214° |
| 2026-05-07 01:45 | 26.54765 | 120.94907 | 35070 ft | 479 kts | 213° |
| 2026-05-07 01:45 | 26.48865 | 120.91366 | 35070 ft | 480 kts | 214° |
| 2026-05-07 01:46 | 26.42946 | 120.87818 | 35071 ft | 480 kts | 213° |
| 2026-05-07 01:46 | 26.37042 | 120.84283 | 35070 ft | 482 kts | 213° |
| 2026-05-07 01:47 | 26.31076 | 120.80715 | 35071 ft | 481 kts | 213° |
| 2026-05-07 01:47 | 26.25143 | 120.77171 | 35071 ft | 482 kts | 213° |
| 2026-05-07 01:48 | 26.19175 | 120.73610 | 35067 ft | 482 kts | 213° |
| 2026-05-07 01:48 | 26.13243 | 120.70074 | 35067 ft | 483 kts | 213° |
| 2026-05-07 01:49 | 26.07280 | 120.66525 | 35069 ft | 482 kts | 213° |
| 2026-05-07 01:49 | 26.01322 | 120.62982 | 35071 ft | 483 kts | 213° |
| 2026-05-07 01:50 | 25.95344 | 120.59432 | 35072 ft | 483 kts | 213° |
| 2026-05-07 01:50 | 25.89375 | 120.55891 | 35068 ft | 482 kts | 213° |
| 2026-05-07 01:51 | 25.83409 | 120.52357 | 35066 ft | 483 kts | 213° |
| 2026-05-07 01:51 | 25.77451 | 120.48830 | 35066 ft | 483 kts | 213° |
| 2026-05-07 01:52 | 25.71440 | 120.45277 | 35067 ft | 484 kts | 213° |
| 2026-05-07 01:52 | 25.65476 | 120.41756 | 35063 ft | 483 kts | 213° |
| 2026-05-07 01:53 | 25.59804 | 120.37781 | 35071 ft | 480 kts | 221° |
| 2026-05-07 01:53 | 25.54440 | 120.33311 | 35073 ft | 479 kts | 221° |
| 2026-05-07 01:54 | 25.49075 | 120.28842 | 35072 ft | 479 kts | 221° |
| 2026-05-07 01:54 | 25.43679 | 120.24358 | 35072 ft | 480 kts | 221° |
| 2026-05-07 01:55 | 25.38315 | 120.19907 | 35071 ft | 481 kts | 221° |
| 2026-05-07 01:55 | 25.32910 | 120.15429 | 35071 ft | 480 kts | 221° |
| 2026-05-07 01:56 | 25.27556 | 120.10998 | 35071 ft | 482 kts | 221° |
| 2026-05-07 01:56 | 25.22160 | 120.06539 | 35071 ft | 481 kts | 221° |
| 2026-05-07 01:57 | 25.16784 | 120.02100 | 35071 ft | 481 kts | 221° |
| 2026-05-07 01:57 | 25.11343 | 119.97613 | 35071 ft | 483 kts | 221° |
| 2026-05-07 01:58 | 25.05962 | 119.93183 | 35071 ft | 481 kts | 221° |
| 2026-05-07 01:58 | 25.00591 | 119.88662 | 35065 ft | 480 kts | 227° |
| 2026-05-07 01:59 | 24.96096 | 119.83287 | 35072 ft | 474 kts | 233° |
| 2026-05-07 01:59 | 24.91781 | 119.77740 | 35072 ft | 473 kts | 234° |
| 2026-05-07 02:00 | 24.87457 | 119.72191 | 35073 ft | 475 kts | 234° |
| 2026-05-07 02:00 | 24.83143 | 119.66666 | 35069 ft | 474 kts | 233° |
| 2026-05-07 02:01 | 24.78801 | 119.61111 | 35070 ft | 474 kts | 233° |
| 2026-05-07 02:01 | 24.74498 | 119.55614 | 35070 ft | 474 kts | 233° |
| 2026-05-07 02:02 | 24.70172 | 119.50095 | 35068 ft | 474 kts | 233° |
| 2026-05-07 02:02 | 24.65813 | 119.44540 | 35070 ft | 475 kts | 233° |
| 2026-05-07 02:03 | 24.61490 | 119.39037 | 35069 ft | 475 kts | 233° |
| 2026-05-07 02:03 | 24.57149 | 119.33519 | 35075 ft | 474 kts | 233° |
| 2026-05-07 02:04 | 24.52791 | 119.27985 | 35079 ft | 476 kts | 233° |
| 2026-05-07 02:04 | 24.48456 | 119.22488 | 35084 ft | 475 kts | 233° |
| 2026-05-07 02:05 | 24.44097 | 119.16964 | 35087 ft | 474 kts | 233° |
| 2026-05-07 02:05 | 24.39764 | 119.11481 | 35089 ft | 475 kts | 233° |
| 2026-05-07 02:06 | 24.35410 | 119.05978 | 35089 ft | 476 kts | 233° |
| 2026-05-07 02:06 | 24.31026 | 119.00443 | 35092 ft | 476 kts | 233° |
| 2026-05-07 02:07 | 24.26673 | 118.94953 | 35094 ft | 477 kts | 233° |
| 2026-05-07 02:07 | 24.20104 | 118.86681 | 35084 ft | 475 kts | 233° |
| 2026-05-07 02:08 | 24.15771 | 118.81234 | 35076 ft | 474 kts | 233° |
| 2026-05-07 02:08 | 24.11388 | 118.75728 | 35078 ft | 476 kts | 233° |
| 2026-05-07 02:09 | 24.07037 | 118.70268 | 35075 ft | 475 kts | 233° |
| 2026-05-07 02:09 | 24.02643 | 118.64761 | 35077 ft | 476 kts | 233° |
| 2026-05-07 02:10 | 23.98281 | 118.59301 | 35076 ft | 476 kts | 233° |
| 2026-05-07 02:10 | 23.93914 | 118.53841 | 35076 ft | 476 kts | 233° |
| 2026-05-07 02:11 | 23.89522 | 118.48355 | 35075 ft | 476 kts | 233° |
| 2026-05-07 02:11 | 23.85121 | 118.42870 | 35074 ft | 476 kts | 232° |
| 2026-05-07 02:12 | 23.80720 | 118.37447 | 35076 ft | 476 kts | 232° |
| 2026-05-07 02:12 | 23.76289 | 118.31994 | 35083 ft | 476 kts | 232° |
| 2026-05-07 02:13 | 23.71854 | 118.26541 | 35083 ft | 475 kts | 232° |
| 2026-05-07 02:13 | 23.67448 | 118.21127 | 35083 ft | 476 kts | 232° |
| 2026-05-07 02:14 | 23.63012 | 118.15684 | 35080 ft | 476 kts | 232° |
| 2026-05-07 02:14 | 23.58614 | 118.10291 | 35075 ft | 476 kts | 232° |
| 2026-05-07 02:15 | 23.54195 | 118.04879 | 35072 ft | 476 kts | 232° |
| 2026-05-07 02:15 | 23.49750 | 117.99442 | 35072 ft | 476 kts | 232° |
| 2026-05-07 02:16 | 23.45339 | 117.94051 | 35072 ft | 475 kts | 232° |
| 2026-05-07 02:16 | 23.40891 | 117.88622 | 35071 ft | 476 kts | 232° |
| 2026-05-07 02:17 | 23.36476 | 117.83239 | 35070 ft | 476 kts | 232° |
| 2026-05-07 02:17 | 23.32052 | 117.77850 | 35070 ft | 475 kts | 232° |
| 2026-05-07 02:18 | 23.27638 | 117.72479 | 35070 ft | 476 kts | 232° |
| 2026-05-07 02:18 | 23.23188 | 117.67071 | 35068 ft | 476 kts | 232° |
| 2026-05-07 02:19 | 23.18756 | 117.61691 | 35070 ft | 476 kts | 232° |
| 2026-05-07 02:19 | 23.14294 | 117.56279 | 35069 ft | 477 kts | 232° |
| 2026-05-07 02:20 | 23.09856 | 117.50902 | 35070 ft | 477 kts | 232° |
| 2026-05-07 02:20 | 23.05432 | 117.45461 | 35067 ft | 476 kts | 233° |
| 2026-05-07 02:21 | 23.01063 | 117.40037 | 35068 ft | 476 kts | 233° |
| 2026-05-07 02:21 | 22.96692 | 117.34616 | 35070 ft | 477 kts | 232° |
| 2026-05-07 02:22 | 22.92447 | 117.29010 | 35084 ft | 473 kts | 237° |
| 2026-05-07 02:22 | 22.88558 | 117.23215 | 35071 ft | 474 kts | 237° |
| 2026-05-07 02:23 | 22.84656 | 117.17404 | 35072 ft | 473 kts | 237° |
| 2026-05-07 02:23 | 22.80767 | 117.11624 | 35070 ft | 474 kts | 237° |
| 2026-05-07 02:24 | 22.76847 | 117.05808 | 35068 ft | 475 kts | 237° |
| 2026-05-07 02:24 | 22.73264 | 116.99772 | 35067 ft | 469 kts | 249° |
| 2026-05-07 02:25 | 22.70794 | 116.93235 | 35072 ft | 468 kts | 251° |
| 2026-05-07 02:25 | 22.68383 | 116.86668 | 35071 ft | 467 kts | 251° |
| 2026-05-07 02:26 | 22.65960 | 116.80084 | 35071 ft | 467 kts | 251° |
| 2026-05-07 02:26 | 22.63545 | 116.73532 | 35070 ft | 467 kts | 251° |
| 2026-05-07 02:27 | 22.61131 | 116.66993 | 35070 ft | 467 kts | 251° |
| 2026-05-07 02:27 | 22.58700 | 116.60422 | 35069 ft | 467 kts | 251° |
| 2026-05-07 02:28 | 22.56286 | 116.53905 | 35065 ft | 466 kts | 251° |
| 2026-05-07 02:28 | 22.53860 | 116.47363 | 35063 ft | 466 kts | 251° |
| 2026-05-07 02:29 | 22.51425 | 116.40807 | 35066 ft | 466 kts | 251° |
| 2026-05-07 02:29 | 22.49005 | 116.34302 | 35075 ft | 466 kts | 251° |
| 2026-05-07 02:30 | 22.46561 | 116.27741 | 35080 ft | 466 kts | 251° |
| 2026-05-07 02:30 | 22.44131 | 116.21228 | 35081 ft | 465 kts | 251° |
| 2026-05-07 02:31 | 22.41710 | 116.14751 | 34879 ft | 459 kts | 251° |
| 2026-05-07 02:31 | 22.40510 | 116.11542 | 34041 ft | 462 kts | 251° |
| 2026-05-07 02:31 | 22.39304 | 116.08318 | 33135 ft | 465 kts | 251° |
| 2026-05-07 02:32 | 22.38076 | 116.05039 | 32309 ft | 466 kts | 251° |
| 2026-05-07 02:32 | 22.36860 | 116.01792 | 31518 ft | 468 kts | 251° |
| 2026-05-07 02:32 | 22.35640 | 115.98539 | 30702 ft | 469 kts | 250° |
| 2026-05-07 02:32 | 22.34401 | 115.95239 | 30165 ft | 464 kts | 250° |
| 2026-05-07 02:33 | 22.33196 | 115.92033 | 29719 ft | 458 kts | 250° |
| 2026-05-07 02:33 | 22.31992 | 115.88830 | 29215 ft | 457 kts | 250° |
| 2026-05-07 02:33 | 22.30787 | 115.85599 | 28669 ft | 469 kts | 251° |
| 2026-05-07 02:33 | 22.29881 | 115.82186 | 28095 ft | 467 kts | 261° |
| 2026-05-07 02:34 | 22.29499 | 115.78738 | 27547 ft | 461 kts | 268° |
| 2026-05-07 02:34 | 22.29391 | 115.75262 | 26997 ft | 456 kts | 269° |
| 2026-05-07 02:34 | 22.29308 | 115.71860 | 26444 ft | 452 kts | 269° |
| 2026-05-07 02:34 | 22.29223 | 115.68462 | 25892 ft | 447 kts | 269° |
| 2026-05-07 02:35 | 22.29138 | 115.65125 | 25348 ft | 443 kts | 269° |
| 2026-05-07 02:35 | 22.29051 | 115.61813 | 24798 ft | 439 kts | 269° |
| 2026-05-07 02:35 | 22.28962 | 115.58490 | 24249 ft | 435 kts | 269° |
| 2026-05-07 02:35 | 22.28875 | 115.55245 | 23704 ft | 432 kts | 269° |
| 2026-05-07 02:36 | 22.28785 | 115.51980 | 23163 ft | 428 kts | 269° |
| 2026-05-07 02:36 | 22.28697 | 115.48786 | 22632 ft | 425 kts | 269° |
| 2026-05-07 02:36 | 22.28607 | 115.45573 | 22095 ft | 422 kts | 269° |
| 2026-05-07 02:36 | 22.28446 | 115.42432 | 21685 ft | 415 kts | 265° |
| 2026-05-07 02:37 | 22.28140 | 115.39381 | 21655 ft | 403 kts | 264° |
| 2026-05-07 02:37 | 22.27820 | 115.36266 | 21665 ft | 422 kts | 264° |
| 2026-05-07 02:37 | 22.27490 | 115.33061 | 21670 ft | 426 kts | 264° |
| 2026-05-07 02:37 | 22.27158 | 115.29841 | 21672 ft | 425 kts | 264° |
| 2026-05-07 02:38 | 22.26830 | 115.26663 | 21668 ft | 425 kts | 264° |
| 2026-05-07 02:38 | 22.26498 | 115.23458 | 21678 ft | 426 kts | 264° |
| 2026-05-07 02:38 | 22.26168 | 115.20275 | 21670 ft | 426 kts | 264° |
| 2026-05-07 02:38 | 22.25832 | 115.17048 | 21664 ft | 426 kts | 264° |
| 2026-05-07 02:39 | 22.25500 | 115.13860 | 21669 ft | 425 kts | 264° |
| 2026-05-07 02:39 | 22.25165 | 115.10652 | 21672 ft | 426 kts | 264° |
| 2026-05-07 02:39 | 22.24834 | 115.07481 | 21678 ft | 426 kts | 264° |
| 2026-05-07 02:39 | 22.24497 | 115.04263 | 21679 ft | 426 kts | 264° |
| 2026-05-07 02:40 | 22.24164 | 115.01093 | 21681 ft | 426 kts | 264° |
| 2026-05-07 02:40 | 22.23824 | 114.97862 | 21680 ft | 427 kts | 264° |
| 2026-05-07 02:40 | 22.23490 | 114.94686 | 21681 ft | 428 kts | 264° |
| 2026-05-07 02:40 | 22.23149 | 114.91459 | 21686 ft | 427 kts | 264° |
| 2026-05-07 02:41 | 22.22813 | 114.88281 | 21682 ft | 427 kts | 264° |
| 2026-05-07 02:41 | 22.22469 | 114.85036 | 21505 ft | 429 kts | 264° |
| 2026-05-07 02:41 | 22.22131 | 114.81847 | 21062 ft | 428 kts | 264° |
| 2026-05-07 02:41 | 22.21793 | 114.78674 | 20507 ft | 425 kts | 264° |
| 2026-05-07 02:42 | 22.21452 | 114.75477 | 19932 ft | 423 kts | 264° |
| 2026-05-07 02:42 | 22.21114 | 114.72302 | 19368 ft | 421 kts | 264° |
| 2026-05-07 02:42 | 22.20780 | 114.69178 | 18806 ft | 419 kts | 263° |
| 2026-05-07 02:42 | 22.20443 | 114.66035 | 18217 ft | 416 kts | 263° |
| 2026-05-07 02:43 | 22.20112 | 114.62951 | 17644 ft | 414 kts | 263° |
| 2026-05-07 02:43 | 22.19777 | 114.59838 | 17088 ft | 411 kts | 263° |
| 2026-05-07 02:43 | 22.19449 | 114.56793 | 16526 ft | 409 kts | 263° |
| 2026-05-07 02:43 | 22.19117 | 114.53717 | 15957 ft | 406 kts | 263° |
| 2026-05-07 02:44 | 22.18791 | 114.50702 | 15381 ft | 404 kts | 263° |
| 2026-05-07 02:44 | 22.18462 | 114.47664 | 14815 ft | 402 kts | 263° |
| 2026-05-07 02:44 | 22.18138 | 114.44678 | 14246 ft | 399 kts | 263° |
| 2026-05-07 02:44 | 22.17813 | 114.41686 | 13681 ft | 397 kts | 263° |
| 2026-05-07 02:45 | 22.17494 | 114.38757 | 13020 ft | 390 kts | 263° |
| 2026-05-07 02:45 | 22.17181 | 114.35886 | 12559 ft | 373 kts | 263° |
| 2026-05-07 02:45 | 22.16882 | 114.33148 | 12096 ft | 358 kts | 263° |
| 2026-05-07 02:45 | 22.16593 | 114.30497 | 11654 ft | 362 kts | 263° |
| 2026-05-07 02:46 | 22.16293 | 114.27768 | 11140 ft | 366 kts | 263° |
| 2026-05-07 02:46 | 22.15995 | 114.25047 | 10797 ft | 349 kts | 263° |
| 2026-05-07 02:46 | 22.15720 | 114.22540 | 10736 ft | 325 kts | 263° |
| 2026-05-07 02:46 | 22.15460 | 114.20173 | 10682 ft | 302 kts | 263° |
| 2026-05-07 02:47 | 22.15220 | 114.17992 | 10585 ft | 283 kts | 263° |
| 2026-05-07 02:47 | 22.14993 | 114.15940 | 10468 ft | 266 kts | 263° |
| 2026-05-07 02:47 | 22.14772 | 114.13931 | 10340 ft | 273 kts | 263° |
| 2026-05-07 02:47 | 22.14540 | 114.11838 | 10300 ft | 286 kts | 263° |
| 2026-05-07 02:48 | 22.14303 | 114.09696 | 10124 ft | 281 kts | 263° |
| 2026-05-07 02:48 | 22.14075 | 114.07638 | 9976 ft | 274 kts | 263° |
| 2026-05-07 02:48 | 22.13847 | 114.05584 | 9639 ft | 277 kts | 263° |
| 2026-05-07 02:48 | 22.13614 | 114.03495 | 9229 ft | 279 kts | 263° |
| 2026-05-07 02:49 | 22.13384 | 114.01421 | 8861 ft | 279 kts | 262° |
| 2026-05-07 02:49 | 22.13150 | 113.99319 | 8500 ft | 279 kts | 262° |
| 2026-05-07 02:49 | 22.12918 | 113.97244 | 8122 ft | 279 kts | 262° |
| 2026-05-07 02:49 | 22.12684 | 113.95143 | 7756 ft | 278 kts | 262° |
| 2026-05-07 02:50 | 22.12453 | 113.93079 | 7422 ft | 277 kts | 262° |
| 2026-05-07 02:50 | 22.12220 | 113.90994 | 7082 ft | 276 kts | 262° |
| 2026-05-07 02:50 | 22.11989 | 113.88934 | 6733 ft | 276 kts | 262° |
| 2026-05-07 02:50 | 22.11761 | 113.86901 | 6376 ft | 270 kts | 262° |
| 2026-05-07 02:51 | 22.11533 | 113.84869 | 6074 ft | 269 kts | 262° |
| 2026-05-07 02:51 | 22.11307 | 113.82858 | 5722 ft | 269 kts | 262° |
| 2026-05-07 02:51 | 22.11083 | 113.80857 | 5383 ft | 269 kts | 263° |
| 2026-05-07 02:51 | 22.11265 | 113.78827 | 5015 ft | 271 kts | 289° |
| 2026-05-07 02:52 | 22.12299 | 113.77147 | 4668 ft | 272 kts | 318° |
| 2026-05-07 02:52 | 22.13906 | 113.76013 | 4354 ft | 272 kts | 332° |
| 2026-05-07 02:52 | 22.15613 | 113.75118 | 4049 ft | 271 kts | 334° |
| 2026-05-07 02:52 | 22.17306 | 113.74277 | 3945 ft | 261 kts | 334° |
| 2026-05-07 02:53 | 22.18953 | 113.73459 | 3860 ft | 251 kts | 334° |
| 2026-05-07 02:53 | 22.20529 | 113.72674 | 3764 ft | 247 kts | 334° |
| 2026-05-07 02:53 | 22.22135 | 113.72007 | 3636 ft | 246 kts | 352° |
| 2026-05-07 02:53 | 22.23810 | 113.72154 | 3525 ft | 236 kts | 22° |
| 2026-05-07 02:54 | 22.25224 | 113.73026 | 3223 ft | 233 kts | 38° |
| 2026-05-07 02:54 | 22.26500 | 113.74130 | 2823 ft | 234 kts | 42° |
| 2026-05-07 02:54 | 22.27703 | 113.75309 | 2508 ft | 225 kts | 54° |
| 2026-05-07 02:54 | 22.28460 | 113.76746 | 2219 ft | 215 kts | 70° |
| 2026-05-07 02:55 | 22.28923 | 113.78233 | 1942 ft | 203 kts | 74° |
| 2026-05-07 02:55 | 22.29366 | 113.79665 | 1678 ft | 192 kts | 72° |
| 2026-05-07 02:55 | 22.29794 | 113.80962 | 1436 ft | 172 kts | 72° |
| 2026-05-07 02:55 | 22.30174 | 113.82132 | 1228 ft | 159 kts | 73° |
| 2026-05-07 02:56 | 22.30532 | 113.83238 | 1020 ft | 153 kts | 72° |
| 2026-05-07 02:56 | 22.30888 | 113.84322 | 796 ft | 152 kts | 72° |
| 2026-05-07 02:56 | 22.31237 | 113.85393 | 612 ft | 148 kts | 73° |
| 2026-05-07 02:56 | 22.31574 | 113.86457 | 410 ft | 148 kts | 72° |
| 2026-05-07 02:57 | 22.31925 | 113.87510 | 213 ft | 147 kts | 73° |
| 2026-05-07 02:57 | 22.32263 | 113.88548 | 46 ft | 142 kts | 72° |
| 2026-05-07 02:57 | 22.32549 | 113.89439 | 41 ft | 102 kts | 72° |
| 2026-05-07 02:57 | 22.32731 | 113.90009 | 41 ft | 58 kts | 70° |
| 2026-05-07 02:58 | 22.32820 | 113.90303 | 41 ft | 33 kts | 82° |
| 2026-05-07 02:58 | 22.32799 | 113.90526 | 41 ft | 20 kts | 116° |
| 2026-05-07 02:58 | 22.32685 | 113.90564 | 41 ft | 16 kts | 193° |
| 2026-05-07 02:58 | 22.32610 | 113.90475 | 41 ft | 19 kts | 252° |
| 2026-05-07 02:59 | 22.32519 | 113.90419 | 41 ft | 16 kts | 169° |
| 2026-05-07 02:59 | 22.32315 | 113.90488 | 41 ft | 67 kts | 159° |
| 2026-05-07 02:59 | 22.31819 | 113.90676 | 41 ft | 68 kts | 162° |
| 2026-05-07 02:59 | 22.31614 | 113.90764 | 41 ft | 12 kts | 130° |
| 2026-05-07 03:00 | 22.31617 | 113.90855 | 41 ft | 14 kts | 73° |
| 2026-05-07 03:00 | 22.31712 | 113.91155 | 41 ft | 50 kts | 70° |
| 2026-05-07 03:00 | 22.31704 | 113.91315 | 41 ft | 15 kts | 160° |
| 2026-05-07 03:00 | 22.31615 | 113.91347 | 41 ft | 24 kts | 161° |
| 2026-05-07 03:01 | 22.31313 | 113.91456 | 41 ft | 24 kts | 163° |
| 2026-05-07 03:01 | 22.31262 | 113.91509 | 41 ft | 8 kts | 77° |
| 2026-05-07 03:01 | 22.31282 | 113.91573 | 41 ft | 3 kts | 71° |
| 2026-05-07 03:01 | 22.31284 | 113.91579 | 41 ft | 0 kts | 72° |